Time;durP1;ratioP1;P1;durP2;ratioP2;P2;SDS_P1;SDS_P2;PMS_P1;PMS_P2;Temp;Humidity;BMP_temperature;BMP_pressure;BME280_temperature;BME280_humidity;BME280_pressure;Samples;Min_cycle;Max_cycle;Signal;HPM_P1;HPM_P2
2022/01/13 00:02:32;;;;;;;36.92;22.20;;;4.30;99.90;;;4.34;78.30;103124.69;4897417;29;20210;-70
2022/01/13 00:05:00;;;;;;;41.42;23.45;;;4.30;99.90;;;4.45;78.37;103121.28;4900582;29;20310;-72
2022/01/13 00:07:30;;;;;;;38.15;21.98;;;4.30;99.90;;;4.42;78.44;103116.97;4900309;29;20186;-70
2022/01/13 00:09:58;;;;;;;51.40;21.98;;;4.30;99.90;;;4.35;78.91;103121.06;4900302;29;20643;-72
2022/01/13 00:12:32;;;;;;;42.42;20.30;;;4.30;99.90;;;4.45;78.59;103122.13;4900355;29;20179;-72
2022/01/13 00:15:21;;;;;;;36.70;21.38;;;4.40;99.90;;;4.49;78.16;103120.94;4900250;29;20221;-71
2022/01/13 00:18:09;;;;;;;36.85;19.75;;;4.40;99.90;;;4.46;78.04;103113.09;4900274;29;20459;-70
2022/01/13 00:23:42;;;;;;;37.92;22.92;;;4.50;99.90;;;4.42;78.29;103105.38;4899956;29;20196;-72
2022/01/13 00:26:18;;;;;;;43.72;26.60;;;4.40;99.90;;;4.48;78.14;103099.59;4900370;29;20178;-71
2022/01/13 00:28:49;;;;;;;43.70;22.25;;;4.40;99.90;;;4.51;78.43;103094.84;4900626;29;20202;-72
2022/01/13 00:31:24;;;;;;;40.75;22.63;;;4.40;99.90;;;4.44;78.25;103092.75;4900478;29;20195;-72
2022/01/13 00:33:54;;;;;;;45.47;23.77;;;4.40;99.90;;;4.56;78.10;103100.75;4900315;29;20182;-71
2022/01/13 00:36:25;;;;;;;43.90;24.83;;;4.50;99.90;;;4.43;78.69;103089.19;4900532;29;20202;-71
2022/01/13 00:38:56;;;;;;;45.20;24.98;;;4.40;99.90;;;4.59;78.38;103087.16;4900033;29;20277;-70
2022/01/13 00:41:28;;;;;;;39.03;21.33;;;4.50;99.90;;;4.53;78.29;103082.22;4900702;29;20573;-71
2022/01/13 00:43:58;;;;;;;39.58;23.95;;;4.50;99.90;;;4.58;78.72;103093.47;4899988;29;20175;-72
2022/01/13 00:46:38;;;;;;;41.72;23.83;;;4.50;99.90;;;4.53;78.17;103084.03;4900192;29;20288;-72
2022/01/13 00:49:07;;;;;;;45.58;24.90;;;4.50;99.90;;;4.51;78.64;103084.13;4900486;29;20201;-73
2022/01/13 00:51:36;;;;;;;46.25;25.15;;;4.50;99.90;;;4.50;78.44;103062.81;4901813;29;20185;-71
2022/01/13 00:54:07;;;;;;;41.63;24.17;;;4.50;99.90;;;4.55;78.93;103063.34;4899881;29;20738;-71
2022/01/13 00:56:37;;;;;;;40.85;24.20;;;4.50;99.90;;;4.52;78.54;103076.94;4900027;29;20206;-71
2022/01/13 00:59:10;;;;;;;37.00;22.35;;;4.50;99.90;;;4.46;78.83;103080.91;4899994;29;20174;-69
2022/01/13 01:01:42;;;;;;;47.45;25.38;;;4.40;99.90;;;4.50;78.66;103077.09;4899864;29;20655;-71
2022/01/13 01:04:11;;;;;;;37.40;23.48;;;4.50;99.90;;;4.46;78.90;103083.59;4899558;29;20214;-70
2022/01/13 01:06:40;;;;;;;53.70;26.95;;;4.50;99.90;;;4.47;79.45;103076.41;4899321;29;20187;-71
2022/01/13 01:09:15;;;;;;;45.17;25.52;;;4.40;99.90;;;4.53;79.05;103070.63;4905329;29;20182;-70
2022/01/13 01:11:47;;;;;;;42.97;23.08;;;4.50;99.90;;;4.49;78.70;103058.41;4912730;29;20217;-70
2022/01/13 01:14:17;;;;;;;46.55;24.35;;;4.50;99.90;;;4.43;78.90;103069.56;4904968;29;20301;-70
2022/01/13 01:16:46;;;;;;;55.13;25.23;;;4.40;99.90;;;4.36;79.52;103070.00;4903579;29;20202;-72
2022/01/13 01:19:25;;;;;;;41.97;25.13;;;4.40;99.90;;;4.43;79.29;103073.09;4900536;29;20218;-71
2022/01/13 01:22:18;;;;;;;47.55;25.55;;;4.40;99.90;;;4.41;78.91;103077.72;4899928;29;20558;-71
2022/01/13 01:27:36;;;;;;;49.38;25.90;;;4.40;99.90;;;4.43;79.55;103078.47;4898991;29;20200;-70
2022/01/13 01:30:12;;;;;;;46.78;26.17;;;4.40;99.90;;;4.42;79.40;103073.22;4898979;29;20204;-71
2022/01/13 01:32:41;;;;;;;50.47;25.77;;;4.40;99.90;;;4.48;79.34;103070.97;4899149;29;20271;-70
2022/01/13 01:35:15;;;;;;;39.88;25.27;;;4.40;99.90;;;4.51;79.09;103073.41;4899020;29;20222;-72
2022/01/13 01:37:45;;;;;;;37.40;23.45;;;4.50;99.90;;;4.55;79.21;103069.53;4898923;29;20202;-71
2022/01/13 01:40:16;;;;;;;45.40;25.08;;;4.50;99.90;;;4.55;78.96;103082.94;4898529;29;20260;-71
2022/01/13 01:42:51;;;;;;;46.75;26.08;;;4.50;99.90;;;4.51;78.96;103080.59;4900611;29;20186;-69
2022/01/13 01:45:20;;;;;;;48.88;25.85;;;4.50;99.90;;;4.39;79.18;103085.03;4934851;29;20658;-70
2022/01/13 01:47:51;;;;;;;43.90;25.67;;;4.40;99.90;;;4.55;79.06;103069.53;4935567;29;20200;-71
2022/01/13 01:50:23;;;;;;;52.42;25.67;;;4.50;99.90;;;4.45;79.32;103078.38;4936868;29;20613;-71
2022/01/13 01:52:54;;;;;;;55.38;27.58;;;4.50;99.90;;;4.43;79.62;103073.09;4936903;29;20274;-70
2022/01/13 01:55:24;;;;;;;52.05;28.60;;;4.40;99.90;;;4.52;79.18;103076.94;4936897;29;20200;-71
2022/01/13 01:57:58;;;;;;;50.45;26.98;;;4.50;99.90;;;4.50;79.27;103071.72;4935399;29;20230;-72
2022/01/13 02:00:27;;;;;;;44.88;24.75;;;4.50;99.90;;;4.40;79.86;103078.69;4951669;29;20201;-70
2022/01/13 02:02:56;;;;;;;51.88;27.60;;;4.40;99.90;;;4.47;79.86;103092.50;4936784;29;20646;-70
2022/01/13 02:05:29;;;;;;;58.08;29.40;;;4.40;99.90;;;4.44;79.49;103082.88;4936709;29;20276;-69
2022/01/13 02:07:58;;;;;;;48.05;27.65;;;4.40;99.90;;;4.37;80.11;103081.56;4936659;29;20187;-71
2022/01/13 02:10:28;;;;;;;45.42;26.88;;;4.40;99.90;;;4.42;80.06;103068.72;4936516;29;20197;-70
2022/01/13 02:13:03;;;;;;;55.65;28.88;;;4.40;99.90;;;4.40;79.76;103069.81;4936105;29;20185;-69
2022/01/13 02:15:46;;;;;;;59.35;27.63;;;4.40;99.90;;;4.44;79.97;103050.69;4935696;29;20260;-70
2022/01/13 02:18:15;;;;;;;49.35;26.35;;;4.40;99.90;;;4.40;79.72;103054.56;4935893;29;20173;-69
2022/01/13 02:20:49;;;;;;;55.38;28.70;;;4.40;99.90;;;4.38;80.11;103045.78;4935784;29;20225;-71
2022/01/13 02:23:36;;;;;;;55.72;28.58;;;4.40;99.90;;;4.38;80.04;103037.72;4935586;29;20212;-70
2022/01/13 02:26:10;;;;;;;50.30;30.30;;;4.40;99.90;;;4.41;80.11;103033.94;4935495;29;20256;-71
2022/01/13 02:28:39;;;;;;;52.22;26.77;;;4.40;99.90;;;4.37;80.29;103038.69;4935225;29;20658;-70
2022/01/13 02:31:08;;;;;;;49.30;26.30;;;4.30;99.90;;;4.35;80.10;103035.28;4939452;29;20200;-71
2022/01/13 02:33:37;;;;;;;58.35;27.67;;;4.30;99.90;;;4.43;79.78;103032.91;4939088;29;20216;-71
2022/01/13 02:36:09;;;;;;;43.60;26.00;;;4.40;99.90;;;4.40;80.37;103025.09;4941422;29;20216;-71
2022/01/13 02:38:38;;;;;;;50.22;29.85;;;4.40;99.90;;;4.33;80.54;103026.47;4942707;29;20211;-70
2022/01/13 02:41:08;;;;;;;53.53;28.90;;;4.40;99.90;;;4.31;80.37;103017.66;4944012;29;20196;-72
2022/01/13 02:43:36;;;;;;;41.95;26.50;;;4.30;99.90;;;4.40;80.22;103014.34;4943729;29;20227;-71
2022/01/13 02:46:31;;;;;;;56.67;27.90;;;4.40;99.90;;;4.41;80.49;103008.00;4946412;29;20607;-71
2022/01/13 02:49:00;;;;;;;48.85;27.85;;;4.30;99.90;;;4.59;80.07;103014.75;4946088;29;20199;-71
2022/01/13 02:51:30;;;;;;;48.90;28.60;;;4.40;99.90;;;4.47;80.12;103007.56;4943719;29;20241;-71
2022/01/13 02:53:58;;;;;;;46.58;26.75;;;4.40;99.90;;;4.48;80.13;103006.59;4943419;29;20296;-72
2022/01/13 02:56:28;;;;;;;54.00;27.30;;;4.40;99.90;;;4.44;80.23;103002.44;4944564;29;20535;-71
2022/01/13 02:58:56;;;;;;;59.88;26.38;;;4.40;99.90;;;4.47;80.38;102995.97;4941866;29;20215;-71
2022/01/13 03:01:25;;;;;;;57.75;29.92;;;4.40;99.90;;;4.53;80.28;102999.09;4940537;29;20295;-69
2022/01/13 03:03:54;;;;;;;55.38;27.02;;;4.50;99.90;;;4.53;79.92;102988.34;4942497;29;20212;-71
2022/01/13 03:06:28;;;;;;;46.05;28.70;;;4.50;99.90;;;4.52;80.19;102994.69;4943682;29;20228;-71
2022/01/13 03:08:59;;;;;;;57.38;31.83;;;4.50;99.90;;;4.56;80.37;102993.50;4943002;29;20203;-72
2022/01/13 03:11:33;;;;;;;49.72;26.17;;;4.50;99.90;;;4.48;80.49;102990.50;4937521;29;20240;-69
2022/01/13 03:14:02;;;;;;;48.92;27.85;;;4.40;99.90;;;4.44;80.34;102980.13;4940367;29;20219;-69
2022/01/13 03:16:31;;;;;;;52.70;30.73;;;4.40;99.90;;;4.44;80.87;102969.41;4942314;29;20189;-70
2022/01/13 03:18:59;;;;;;;50.83;28.30;;;4.40;99.90;;;4.50;80.53;102977.88;4940027;29;20207;-70
2022/01/13 03:21:30;;;;;;;49.65;27.60;;;4.40;99.90;;;4.46;80.57;102984.41;4942905;29;20193;-69
2022/01/13 03:24:02;;;;;;;50.13;27.38;;;4.40;99.90;;;4.46;80.52;102989.75;4942049;29;20204;-69
2022/01/13 03:26:30;;;;;;;47.92;24.50;;;4.40;99.90;;;4.37;81.16;102990.44;4938923;29;20209;-69
2022/01/13 03:29:14;;;;;;;48.75;25.90;;;4.40;99.90;;;4.29;81.28;102979.41;4936776;29;20614;-69
2022/01/13 03:31:45;;;;;;;45.10;26.98;;;4.30;99.90;;;4.33;81.52;102980.91;4937472;29;20185;-70
2022/01/13 03:34:17;;;;;;;46.72;28.02;;;4.40;99.90;;;4.33;81.27;102978.22;4936112;29;20296;-71
2022/01/13 03:36:46;;;;;;;52.67;28.05;;;4.30;99.90;;;4.20;81.53;102980.09;4936231;29;20181;-68
2022/01/13 03:39:16;;;;;;;57.83;27.50;;;4.20;99.90;;;4.25;81.86;102985.97;4941394;29;20761;-72
2022/01/13 03:41:45;;;;;;;45.55;26.88;;;4.20;99.90;;;4.20;81.65;102975.59;4941448;29;20196;-71
2022/01/13 03:44:27;;;;;;;63.22;28.75;;;4.20;99.90;;;4.29;81.75;102977.59;4940648;29;20229;-71
2022/01/13 03:46:56;;;;;;;51.72;26.00;;;4.20;99.90;;;4.20;81.55;102982.75;4941436;29;20185;-70
2022/01/13 03:49:25;;;;;;;51.70;30.17;;;4.20;99.90;;;4.19;82.16;102975.69;4937185;29;20558;-69
2022/01/13 03:53:06;;;;;;;52.28;28.02;;;4.20;99.90;;;4.17;82.52;102983.81;4938547;29;20653;-71
2022/01/13 03:56:25;;;;;;;55.25;27.73;;;4.20;99.90;;;4.18;82.38;102977.50;4938321;29;20188;-69
2022/01/13 03:59:56;;;;;;;62.75;26.55;;;4.20;99.90;;;4.32;82.37;102968.47;4938548;29;20279;-68
2022/01/13 04:02:25;;;;;;;47.30;25.83;;;4.20;99.90;;;4.38;81.75;102968.03;4938605;29;20180;-72
2022/01/13 04:04:54;;;;;;;53.03;27.52;;;4.30;99.90;;;4.38;81.56;102968.03;4938105;29;20216;-69
2022/01/13 04:07:25;;;;;;;50.78;26.85;;;4.30;99.90;;;4.28;82.01;102964.28;4939073;29;20630;-66
2022/01/13 04:11:03;;;;;;;48.65;27.00;;;4.30;99.90;;;4.23;82.58;102958.41;4939052;29;20244;-70
2022/01/13 04:13:46;;;;;;;52.03;26.95;;;4.30;99.90;;;4.20;82.60;102953.28;4938080;29;20227;-70
2022/01/13 04:16:20;;;;;;;50.88;28.50;;;4.20;99.90;;;4.22;82.82;102954.88;4937731;29;20197;-70
2022/01/13 04:18:50;;;;;;;49.55;26.75;;;4.20;99.90;;;4.25;82.63;102965.38;4937691;29;20612;-71
2022/01/13 04:21:19;;;;;;;49.20;28.08;;;4.20;99.90;;;4.23;82.75;102961.09;4937313;29;20193;-71
2022/01/13 04:23:53;;;;;;;55.42;29.00;;;4.20;99.90;;;4.20;82.74;102951.47;4937791;29;20220;-70
2022/01/13 04:26:27;;;;;;;50.10;28.15;;;4.20;99.90;;;4.15;82.99;102948.25;4935574;29;20192;-70
2022/01/13 04:29:04;;;;;;;50.88;30.27;;;4.20;99.90;;;4.18;82.95;102949.84;4937381;29;20676;-69
2022/01/13 04:31:33;;;;;;;50.80;31.25;;;4.20;99.90;;;4.18;82.78;102945.34;4937134;29;20652;-69
2022/01/13 04:34:02;;;;;;;51.60;29.27;;;4.20;99.90;;;4.16;83.10;102939.25;4937108;29;20277;-71
2022/01/13 04:36:30;;;;;;;55.60;28.52;;;4.10;99.90;;;4.13;83.24;102935.91;4935310;29;20212;-70
2022/01/13 04:38:59;;;;;;;53.28;28.13;;;4.10;99.90;;;4.18;82.94;102931.94;4936910;29;20263;-69
2022/01/13 04:41:32;;;;;;;55.38;30.15;;;4.20;99.90;;;4.10;83.37;102930.78;4936791;29;20662;-70
2022/01/13 04:44:02;;;;;;;56.67;31.83;;;4.10;99.90;;;4.10;83.20;102934.34;4937538;29;20307;-69
2022/01/13 04:46:30;;;;;;;65.18;31.50;;;4.10;99.90;;;4.08;83.61;102940.75;4936738;29;20211;-71
2022/01/13 04:49:00;;;;;;;69.30;32.72;;;4.10;99.90;;;3.90;83.67;102937.59;4936555;29;20213;-70
2022/01/13 04:51:28;;;;;;;62.05;32.25;;;4.00;99.90;;;4.03;84.11;102938.41;4936577;29;20197;-70
2022/01/13 04:53:58;;;;;;;64.65;32.20;;;4.00;99.90;;;3.97;83.66;102938.84;4938743;29;20269;-70
2022/01/13 04:56:31;;;;;;;62.95;34.35;;;4.00;99.90;;;4.01;83.65;102937.69;4940160;29;20244;-69
2022/01/13 04:59:00;;;;;;;58.05;32.60;;;4.00;99.90;;;3.97;83.94;102946.03;4939750;29;20597;-69
2022/01/13 05:01:28;;;;;;;70.10;34.17;;;4.00;99.90;;;4.01;84.10;102945.72;4938433;29;20598;-70
2022/01/13 05:03:58;;;;;;;78.25;34.13;;;4.00;99.90;;;4.19;83.36;102939.03;4936802;29;20286;-69
2022/01/13 05:06:27;;;;;;;65.70;32.40;;;4.10;99.90;;;4.09;83.37;102923.72;4936417;29;20197;-71
2022/01/13 05:08:55;;;;;;;77.70;32.22;;;4.00;99.90;;;4.12;83.58;102937.75;4936840;29;20207;-70
2022/01/13 05:11:24;;;;;;;59.38;31.35;;;4.10;99.90;;;4.19;83.59;102932.81;4935277;29;20732;-69
2022/01/13 05:13:54;;;;;;;67.85;34.20;;;4.10;99.90;;;4.14;83.66;102929.59;4937269;29;20268;-70
2022/01/13 05:16:27;;;;;;;58.08;33.58;;;4.10;99.90;;;4.11;83.68;102927.16;4939592;29;20189;-69
2022/01/13 05:19:08;;;;;;;59.67;31.08;;;4.10;99.90;;;4.13;83.94;102935.91;4939492;29;20200;-70
2022/01/13 05:21:55;;;;;;;63.65;32.88;;;4.10;99.90;;;4.24;83.37;102944.03;4939503;29;20188;-69
2022/01/13 05:24:23;;;;;;;61.20;31.85;;;4.10;99.90;;;4.10;83.63;102944.19;4940648;29;20239;-69
2022/01/13 05:26:53;;;;;;;62.20;32.95;;;4.10;99.90;;;4.18;83.60;102948.03;4938711;29;20181;-69
2022/01/13 05:29:21;;;;;;;61.45;32.22;;;4.10;99.90;;;4.05;83.45;102943.66;4940284;29;20180;-72
2022/01/13 05:31:51;;;;;;;66.97;33.53;;;4.10;99.90;;;4.07;83.47;102944.38;4941859;29;20263;-70
2022/01/13 05:34:19;;;;;;;51.85;29.77;;;4.10;99.90;;;4.04;83.83;102928.53;4939881;29;20233;-69
2022/01/13 05:37:09;;;;;;;62.95;34.13;;;4.10;99.90;;;4.10;83.94;102934.34;4939313;29;20181;-69
2022/01/13 05:39:37;;;;;;;70.20;32.05;;;4.10;99.90;;;4.07;84.02;102933.69;4938015;29;20204;-70
2022/01/13 05:42:07;;;;;;;70.68;35.03;;;4.00;99.90;;;4.08;83.92;102938.06;4937379;29;20267;-69
2022/01/13 05:44:38;;;;;;;73.00;34.97;;;4.10;99.90;;;4.05;83.91;102941.84;4937999;29;20216;-71
2022/01/13 05:47:10;;;;;;;68.65;32.08;;;4.10;99.90;;;3.94;84.22;102945.28;4938039;29;20189;-69
2022/01/13 05:49:42;;;;;;;62.58;31.48;;;4.00;99.90;;;3.96;84.23;102937.16;4938239;29;20228;-69
2022/01/13 05:52:14;;;;;;;66.03;33.50;;;4.00;99.90;;;4.05;84.00;102943.66;4937034;29;20204;-69
2022/01/13 05:54:43;;;;;;;59.92;32.50;;;4.00;99.90;;;4.03;84.11;102943.75;4936053;29;20216;-71
2022/01/13 05:57:11;;;;;;;64.65;30.98;;;4.00;99.90;;;3.86;84.43;102941.44;4936254;29;20184;-69
2022/01/13 05:59:39;;;;;;;63.30;31.95;;;3.90;99.90;;;3.85;84.84;102921.84;4937830;29;20201;-70
2022/01/13 06:02:08;;;;;;;67.55;32.10;;;3.90;99.90;;;3.90;84.54;102917.00;4944073;29;20224;-71
2022/01/13 06:04:36;;;;;;;64.30;32.75;;;3.90;99.90;;;3.87;84.59;102919.06;4940207;29;20224;-69
2022/01/13 06:07:05;;;;;;;67.30;32.20;;;3.90;99.90;;;3.92;84.72;102925.78;4936591;29;20277;-71
2022/01/13 06:09:34;;;;;;;62.03;32.30;;;3.90;99.90;;;4.00;84.64;102929.75;4935463;29;20199;-70
2022/01/13 06:12:04;;;;;;;65.55;31.48;;;4.00;99.90;;;4.11;84.17;102944.09;4936029;29;20169;-70
2022/01/13 06:14:32;;;;;;;62.92;29.27;;;4.00;99.90;;;3.97;84.51;102938.00;4935940;29;20308;-70
2022/01/13 06:17:01;;;;;;;61.13;29.92;;;4.00;99.90;;;3.99;84.61;102941.41;4935531;29;20256;-70
2022/01/13 06:19:29;;;;;;;57.90;33.25;;;4.00;99.90;;;4.07;84.40;102937.22;4936738;29;20473;-71
2022/01/13 06:21:57;;;;;;;60.33;29.38;;;4.00;99.90;;;4.04;84.16;102934.75;4935823;29;20193;-71
2022/01/13 06:24:26;;;;;;;62.38;28.40;;;4.00;99.90;;;4.08;84.32;102936.25;4935152;29;20219;-69
2022/01/13 06:26:56;;;;;;;52.42;28.20;;;4.00;99.90;;;4.08;84.02;102943.44;4935312;29;20193;-68
2022/01/13 06:29:25;;;;;;;52.25;28.48;;;4.10;99.90;;;4.13;84.21;102955.53;4936953;29;20197;-70
2022/01/13 06:31:54;;;;;;;59.40;28.23;;;4.00;99.90;;;4.08;84.30;102967.53;4938256;29;20173;-70
2022/01/13 06:34:22;;;;;;;62.30;29.95;;;4.10;99.90;;;4.11;84.12;102957.50;4936413;29;20221;-69
2022/01/13 06:36:51;;;;;;;56.75;28.42;;;4.10;99.90;;;4.12;83.80;102969.91;4936799;29;20698;-71
2022/01/13 06:39:20;;;;;;;66.45;35.45;;;4.10;99.90;;;4.16;84.04;102963.38;4939995;29;20437;-70
2022/01/13 06:41:48;;;;;;;62.22;31.17;;;4.20;99.90;;;4.17;83.90;102967.75;4937114;29;20203;-70
2022/01/13 06:44:18;;;;;;;54.97;29.38;;;4.10;99.90;;;4.19;83.68;102970.31;4937939;29;20232;-69
2022/01/13 06:46:46;;;;;;;52.17;24.30;;;4.10;99.90;;;4.26;83.87;102971.59;4939232;29;20264;-69
2022/01/13 06:49:15;;;;;;;51.83;27.73;;;4.20;99.90;;;4.27;83.58;102959.91;4940924;29;20188;-70
2022/01/13 06:51:43;;;;;;;56.67;25.80;;;4.20;99.90;;;4.23;83.86;102958.41;4940292;29;20185;-71
2022/01/13 06:54:11;;;;;;;51.53;27.05;;;4.20;99.90;;;4.36;83.76;102962.75;4939692;29;20236;-71
2022/01/13 06:56:40;;;;;;;55.45;28.60;;;4.20;99.90;;;4.28;83.68;102966.97;4934786;29;20181;-70
2022/01/13 06:59:11;;;;;;;51.38;27.08;;;4.30;99.90;;;4.18;84.05;102979.31;4934575;29;20211;-70
2022/01/13 07:01:50;;;;;;;52.70;28.20;;;4.20;99.90;;;4.20;83.90;102982.75;4933906;29;20606;-70
2022/01/13 07:04:22;;;;;;;59.05;29.10;;;4.20;99.90;;;4.14;84.18;102969.78;4934499;29;20221;-70
2022/01/13 07:06:52;;;;;;;57.28;29.40;;;4.10;99.90;;;4.17;83.86;102969.56;4933793;29;20197;-72
2022/01/13 07:09:22;;;;;;;52.67;29.40;;;4.20;99.90;;;4.20;84.06;102974.72;4934479;29;20201;-70
2022/01/13 07:11:52;;;;;;;49.10;27.38;;;4.20;99.90;;;4.22;84.05;102970.09;4934628;29;20192;-70
2022/01/13 07:14:22;;;;;;;54.20;28.15;;;4.20;99.90;;;4.17;83.91;102967.75;4938532;29;20220;-70
2022/01/13 07:16:54;;;;;;;52.00;26.58;;;4.10;99.90;;;4.14;83.96;102961.75;4938768;29;20223;-69
2022/01/13 07:19:24;;;;;;;54.33;26.98;;;4.10;99.90;;;4.08;84.37;102954.16;4938480;29;20220;-70
2022/01/13 07:21:53;;;;;;;57.85;29.00;;;4.10;99.90;;;4.17;84.07;102950.81;4938379;29;20184;-72
2022/01/13 07:24:22;;;;;;;62.45;27.98;;;4.10;99.90;;;4.24;83.80;102960.13;4938645;29;20216;-69
2022/01/13 07:26:53;;;;;;;59.83;26.75;;;4.10;99.90;;;4.21;84.33;102960.38;4937829;29;20216;-67
2022/01/13 07:29:21;;;;;;;54.53;29.52;;;4.10;99.90;;;4.27;83.86;102973.28;4938512;29;20201;-69
2022/01/13 07:32:05;;;;;;;61.13;28.48;;;4.20;99.90;;;4.19;83.99;102979.22;4938271;29;20208;-71
2022/01/13 07:34:43;;;;;;;60.47;28.30;;;4.20;99.90;;;4.28;83.97;102983.91;4938720;29;20704;-69
2022/01/13 07:37:29;;;;;;;59.95;28.83;;;4.20;99.90;;;4.21;84.24;102981.81;4938691;29;20188;-70
2022/01/13 07:39:57;;;;;;;55.22;28.92;;;4.20;99.90;;;4.14;84.18;102980.50;4936506;29;20268;-71
2022/01/13 07:42:28;;;;;;;64.93;31.02;;;4.10;99.90;;;4.17;83.99;102977.59;4938103;29;20568;-71
2022/01/13 07:45:01;;;;;;;62.45;30.40;;;4.10;99.90;;;4.23;84.02;102982.53;4972679;23;20223;-71
2022/01/13 07:47:33;;;;;;;56.45;29.80;;;4.20;99.90;;;4.14;83.97;102969.78;4971451;28;20275;-72
2022/01/13 07:50:02;;;;;;;59.53;29.67;;;4.10;99.90;;;4.16;84.40;102973.25;4956503;29;20176;-72
2022/01/13 07:52:31;;;;;;;62.30;33.00;;;4.10;99.90;;;4.23;83.94;102956.59;4971845;28;20226;-73
2022/01/13 07:54:59;;;;;;;60.80;30.55;;;4.20;99.90;;;4.14;83.81;102959.06;4975535;28;20207;-71
2022/01/13 07:57:28;;;;;;;65.40;30.05;;;4.20;99.90;;;4.10;84.37;102977.22;4974821;28;20209;-73
2022/01/13 07:59:57;;;;;;;69.40;30.25;;;4.10;99.90;;;4.04;84.64;102977.63;4974598;28;20215;-71
2022/01/13 08:02:28;;;;;;;60.67;29.50;;;4.10;99.90;;;4.08;84.63;102991.66;4974141;28;20211;-71
2022/01/13 08:04:58;;;;;;;62.42;29.83;;;4.10;99.90;;;4.10;84.63;102993.28;4974849;28;20191;-72
2022/01/13 08:07:26;;;;;;;55.88;26.65;;;4.10;99.90;;;4.18;84.44;102998.09;4973812;28;20215;-72
2022/01/13 08:09:55;;;;;;;59.10;29.05;;;4.10;99.90;;;4.24;84.45;102978.88;4975837;28;20612;-73
2022/01/13 08:12:23;;;;;;;52.45;28.50;;;4.10;99.90;;;4.18;83.92;102984.69;4974455;28;20685;-71
2022/01/13 08:14:52;;;;;;;62.60;28.35;;;4.20;99.90;;;4.18;84.37;102995.41;4975044;28;20761;-71
2022/01/13 08:20:09;;;;;;;59.83;30.10;;;4.20;99.90;;;4.22;83.97;103002.25;4974578;28;20210;-70
2022/01/13 08:22:37;;;;;;;54.40;30.73;;;4.20;99.90;;;4.15;84.08;103007.22;4975683;28;20187;-71
2022/01/13 08:25:10;;;;;;;59.78;30.33;;;4.20;99.90;;;4.19;84.25;103002.47;4975712;28;20230;-72
2022/01/13 08:27:39;;;;;;;60.42;31.75;;;4.20;99.90;;;4.19;84.12;103008.72;4975319;28;20254;-71
2022/01/13 08:30:09;;;;;;;59.75;29.38;;;4.20;99.90;;;4.16;84.35;103002.72;4974318;28;20211;-71
2022/01/13 08:32:38;;;;;;;72.05;33.25;;;4.20;99.90;;;4.14;84.23;103007.31;4979194;28;20211;-72
2022/01/13 08:35:10;;;;;;;61.70;29.15;;;4.20;99.90;;;4.22;84.75;102994.22;4979709;28;20199;-70
2022/01/13 08:37:39;;;;;;;68.97;31.83;;;4.20;99.90;;;4.22;84.72;102988.84;4976082;28;20207;-73
2022/01/13 08:40:13;;;;;;;67.05;31.98;;;4.20;99.90;;;4.16;84.48;102997.34;4974785;28;20303;-72
2022/01/13 08:42:43;;;;;;;67.35;32.20;;;4.10;99.90;;;4.13;84.49;103008.28;4975197;28;20539;-71
2022/01/13 08:45:14;;;;;;;63.15;31.55;;;4.10;99.90;;;4.14;84.51;102983.19;4974638;28;20203;-71
2022/01/13 08:47:44;;;;;;;69.68;32.90;;;4.10;99.90;;;4.21;84.27;102984.47;4975157;28;20215;-72
2022/01/13 08:50:14;;;;;;;67.10;33.97;;;4.10;99.90;;;4.18;84.26;102988.22;4975231;28;20549;-72
2022/01/13 08:52:45;;;;;;;65.85;32.28;;;4.20;99.90;;;4.26;84.35;102980.47;4975220;28;20549;-71
2022/01/13 08:55:13;;;;;;;62.72;30.73;;;4.20;99.90;;;4.28;84.26;102972.34;4975179;28;20190;-71
2022/01/13 08:57:41;;;;;;;63.30;31.38;;;4.20;99.90;;;4.21;84.12;102969.22;4974927;28;20219;-72
2022/01/13 09:00:12;;;;;;;62.40;27.25;;;4.20;99.90;;;4.20;84.49;102986.31;4974218;28;20200;-72
2022/01/13 09:02:43;;;;;;;59.78;30.42;;;4.20;99.90;;;4.23;84.33;102977.16;4974519;28;20242;-70
2022/01/13 09:05:15;;;;;;;75.05;30.88;;;4.20;99.90;;;4.29;84.42;102984.78;4974257;28;20183;-70
2022/01/13 09:07:44;;;;;;;62.95;29.65;;;4.20;99.90;;;4.39;83.81;102977.78;4974052;28;20234;-71
2022/01/13 09:10:16;;;;;;;64.40;30.27;;;4.30;99.90;;;4.39;83.88;102993.88;4972819;28;20182;-71
2022/01/13 09:12:45;;;;;;;53.75;27.65;;;4.30;99.90;;;4.33;83.94;102978.22;4974349;28;20194;-71
2022/01/13 09:15:19;;;;;;;64.45;30.33;;;4.30;99.90;;;4.40;84.37;102981.31;4972729;28;20199;-71
2022/01/13 09:17:51;;;;;;;50.47;29.35;;;4.30;99.90;;;4.48;83.59;102985.16;4974369;28;20254;-71
2022/01/13 09:20:21;;;;;;;62.72;31.40;;;4.40;99.90;;;4.39;83.64;102975.09;4974101;28;20266;-71
2022/01/13 09:22:50;;;;;;;59.72;32.28;;;4.40;99.90;;;4.40;83.91;102984.00;4973289;28;20254;-71
2022/01/13 09:25:19;;;;;;;69.25;29.80;;;4.30;99.90;;;4.40;83.77;102974.16;4974120;28;20254;-71
2022/01/13 09:27:47;;;;;;;52.22;28.00;;;4.40;99.90;;;4.40;83.94;102984.00;4974064;28;20219;-70
2022/01/13 09:30:17;;;;;;;63.08;28.50;;;4.40;99.90;;;4.34;84.12;102969.22;4974536;28;20196;-73
2022/01/13 09:32:46;;;;;;;55.70;27.58;;;4.30;99.90;;;4.38;83.66;102965.34;4975059;28;20187;-72
2022/01/13 09:35:15;;;;;;;54.05;27.70;;;4.30;99.90;;;4.28;84.02;102975.88;4973767;28;20172;-71
2022/01/13 09:37:45;;;;;;;58.70;26.33;;;4.30;99.90;;;4.23;83.95;102982.53;4988547;28;20230;-71
2022/01/13 09:40:15;;;;;;;62.35;32.85;;;4.20;99.90;;;4.32;84.15;102987.22;4974025;28;20235;-71
2022/01/13 09:42:46;;;;;;;68.90;29.55;;;4.30;99.90;;;4.32;84.10;102976.50;4973923;28;20195;-71
2022/01/13 09:45:18;;;;;;;56.90;28.45;;;4.30;99.90;;;4.31;84.26;102980.16;4973704;28;20234;-72
2022/01/13 09:47:48;;;;;;;60.55;28.98;;;4.30;99.90;;;4.28;83.97;102983.06;4972167;28;20880;-72
2022/01/13 09:50:21;;;;;;;56.65;27.95;;;4.30;99.90;;;4.33;83.92;102983.59;4966831;28;20203;-71
2022/01/13 09:52:51;;;;;;;60.92;27.40;;;4.30;99.90;;;4.35;83.96;102977.16;4952994;28;20589;-70
2022/01/13 09:55:20;;;;;;;56.75;28.58;;;4.30;99.90;;;4.47;84.13;102974.53;4953591;28;20584;-72
2022/01/13 09:57:51;;;;;;;55.08;26.15;;;4.40;99.90;;;4.40;83.73;102984.00;4953897;29;20584;-71
2022/01/13 10:00:25;;;;;;;56.33;27.88;;;4.30;99.90;;;4.34;83.87;102979.94;4984835;28;20307;-72
2022/01/13 10:02:55;;;;;;;62.80;29.30;;;4.30;99.90;;;4.30;83.68;102962.38;4953802;28;20456;-71
2022/01/13 10:05:24;;;;;;;70.47;29.13;;;4.30;99.90;;;4.43;83.80;102957.81;4954212;29;20260;-71
2022/01/13 10:07:55;;;;;;;64.88;28.40;;;4.40;99.90;;;4.47;83.04;102956.63;4954457;29;20208;-71
2022/01/13 10:10:31;;;;;;;55.13;25.65;;;4.40;99.90;;;4.54;83.42;102960.59;4954224;29;20183;-71
2022/01/13 10:13:09;;;;;;;54.50;29.10;;;4.40;99.90;;;4.41;83.04;102958.88;4953885;28;20239;-70
2022/01/13 10:18:43;;;;;;;58.10;28.00;;;4.40;99.90;;;4.35;83.46;102961.06;4953845;29;20204;-70
2022/01/13 10:21:13;;;;;;;64.72;29.90;;;4.30;99.90;;;4.39;83.75;102953.66;4954223;29;20200;-71
2022/01/13 10:24:09;;;;;;;66.95;30.77;;;4.30;99.90;;;4.39;83.47;102948.28;4953102;29;20206;-71
2022/01/13 10:26:40;;;;;;;56.75;28.30;;;4.40;99.90;;;4.49;83.04;102957.38;4952989;29;20555;-72
2022/01/13 10:29:10;;;;;;;66.60;31.38;;;4.40;99.90;;;4.59;83.02;102941.47;4953885;28;20271;-71
2022/01/13 10:31:48;;;;;;;60.28;27.55;;;4.50;99.90;;;4.49;82.72;102949.34;4953812;29;20196;-72
2022/01/13 10:34:21;;;;;;;60.28;28.33;;;4.50;99.90;;;4.49;82.87;102945.78;4957920;28;20208;-72
2022/01/13 10:37:07;;;;;;;53.17;27.30;;;4.50;99.90;;;4.58;82.81;102940.59;4957584;28;20558;-71
2022/01/13 10:40:00;;;;;;;58.05;27.27;;;4.50;99.90;;;4.54;82.67;102936.44;4954699;29;20262;-71
2022/01/13 10:45:46;;;;;;;50.92;26.92;;;4.50;99.90;;;4.69;82.63;102931.78;4950194;28;20633;-72
2022/01/13 10:48:21;;;;;;;53.83;28.85;;;4.60;99.90;;;4.54;82.54;102925.72;4955041;29;20215;-70
2022/01/13 10:50:54;;;;;;;56.97;27.05;;;4.60;99.90;;;4.56;82.74;102931.81;4956050;29;20210;-71